sensor_id;sensor_type;location;lat;lon;timestamp;pressure;altitude;pressure_sealevel;temperature;humidity
66703;BME280;60933;46.398;-63.798;2023-05-13T00:02:12;101095.38;;;18.69;43.12
66703;BME280;60933;46.398;-63.798;2023-05-13T00:04:39;101095.75;;;18.45;43.91
66703;BME280;60933;46.398;-63.798;2023-05-13T00:07:05;101094.19;;;18.25;43.73
66703;BME280;60933;46.398;-63.798;2023-05-13T00:09:31;101089.69;;;18.11;43.98
66703;BME280;60933;46.398;-63.798;2023-05-13T00:11:57;101089.38;;;17.99;44.68
66703;BME280;60933;46.398;-63.798;2023-05-13T00:14:23;101097.72;;;17.88;44.09
66703;BME280;60933;46.398;-63.798;2023-05-13T00:16:49;101095.78;;;17.75;44.45
66703;BME280;60933;46.398;-63.798;2023-05-13T00:19:16;101091.41;;;17.58;44.89
66703;BME280;60933;46.398;-63.798;2023-05-13T00:21:42;101100.59;;;17.47;44.78
66703;BME280;60933;46.398;-63.798;2023-05-13T00:24:08;101098.56;;;17.35;45.12
66703;BME280;60933;46.398;-63.798;2023-05-13T00:26:34;101108.00;;;17.20;46.40
66703;BME280;60933;46.398;-63.798;2023-05-13T00:29:00;101098.03;;;17.09;45.97
66703;BME280;60933;46.398;-63.798;2023-05-13T00:31:26;101104.53;;;17.00;46.65
66703;BME280;60933;46.398;-63.798;2023-05-13T00:33:52;101114.50;;;16.90;46.94
66703;BME280;60933;46.398;-63.798;2023-05-13T00:36:18;101132.97;;;16.86;47.62
66703;BME280;60933;46.398;-63.798;2023-05-13T00:38:44;101176.34;;;16.68;48.68
66703;BME280;60933;46.398;-63.798;2023-05-13T00:41:11;101191.78;;;16.31;50.34
66703;BME280;60933;46.398;-63.798;2023-05-13T00:43:37;101182.91;;;16.14;48.44
66703;BME280;60933;46.398;-63.798;2023-05-13T00:46:04;101168.59;;;16.04;48.54
66703;BME280;60933;46.398;-63.798;2023-05-13T00:48:32;101140.25;;;15.96;48.74
66703;BME280;60933;46.398;-63.798;2023-05-13T00:50:58;101127.59;;;15.87;49.09
66703;BME280;60933;46.398;-63.798;2023-05-13T00:53:24;101147.75;;;15.82;48.66
66703;BME280;60933;46.398;-63.798;2023-05-13T00:55:50;101169.28;;;15.63;50.19
66703;BME280;60933;46.398;-63.798;2023-05-13T00:58:17;101168.88;;;15.52;50.83
66703;BME280;60933;46.398;-63.798;2023-05-13T01:01:10;101169.09;;;15.46;52.07
66703;BME280;60933;46.398;-63.798;2023-05-13T01:06:29;101146.69;;;15.19;53.01
66703;BME280;60933;46.398;-63.798;2023-05-13T01:11:38;101135.97;;;15.05;52.23
66703;BME280;60933;46.398;-63.798;2023-05-13T01:14:11;101137.88;;;15.00;51.25
66703;BME280;60933;46.398;-63.798;2023-05-13T01:16:48;101146.41;;;15.03;49.86
66703;BME280;60933;46.398;-63.798;2023-05-13T01:19:38;101132.06;;;14.93;51.95
66703;BME280;60933;46.398;-63.798;2023-05-13T01:22:07;101145.06;;;14.93;51.56
66703;BME280;60933;46.398;-63.798;2023-05-13T01:24:33;101146.22;;;14.84;53.17
66703;BME280;60933;46.398;-63.798;2023-05-13T01:26:59;101136.88;;;14.80;52.41
66703;BME280;60933;46.398;-63.798;2023-05-13T01:29:26;101132.78;;;14.73;52.40
66703;BME280;60933;46.398;-63.798;2023-05-13T01:31:53;101135.56;;;14.68;51.18
66703;BME280;60933;46.398;-63.798;2023-05-13T01:34:22;101143.41;;;14.65;51.63
66703;BME280;60933;46.398;-63.798;2023-05-13T01:36:48;101125.28;;;14.64;51.48
66703;BME280;60933;46.398;-63.798;2023-05-13T01:39:15;101121.00;;;14.63;51.16
66703;BME280;60933;46.398;-63.798;2023-05-13T01:41:42;101121.97;;;14.60;52.51
66703;BME280;60933;46.398;-63.798;2023-05-13T01:44:09;101117.75;;;14.56;52.93
66703;BME280;60933;46.398;-63.798;2023-05-13T01:46:38;101112.63;;;14.54;52.65
66703;BME280;60933;46.398;-63.798;2023-05-13T01:49:05;101109.22;;;14.52;53.59
66703;BME280;60933;46.398;-63.798;2023-05-13T01:51:32;101117.00;;;14.52;53.69
66703;BME280;60933;46.398;-63.798;2023-05-13T01:53:58;101122.22;;;14.52;52.51
66703;BME280;60933;46.398;-63.798;2023-05-13T01:56:24;101111.94;;;14.49;53.33
66703;BME280;60933;46.398;-63.798;2023-05-13T01:58:50;101104.31;;;14.45;52.79
66703;BME280;60933;46.398;-63.798;2023-05-13T02:01:16;101110.53;;;14.40;53.13
66703;BME280;60933;46.398;-63.798;2023-05-13T02:03:42;101105.50;;;14.36;53.67
66703;BME280;60933;46.398;-63.798;2023-05-13T02:06:09;101103.94;;;14.30;53.56
66703;BME280;60933;46.398;-63.798;2023-05-13T02:08:35;101093.63;;;14.29;53.64
66703;BME280;60933;46.398;-63.798;2023-05-13T02:11:02;101096.31;;;14.25;54.23
66703;BME280;60933;46.398;-63.798;2023-05-13T02:13:28;101102.50;;;14.21;53.89
66703;BME280;60933;46.398;-63.798;2023-05-13T02:15:54;101094.84;;;14.18;54.07
66703;BME280;60933;46.398;-63.798;2023-05-13T02:18:20;101088.16;;;14.11;54.33
66703;BME280;60933;46.398;-63.798;2023-05-13T02:20:47;101082.28;;;14.06;55.10
66703;BME280;60933;46.398;-63.798;2023-05-13T02:23:13;101097.88;;;14.04;55.29
66703;BME280;60933;46.398;-63.798;2023-05-13T02:25:40;101091.00;;;14.03;54.03
66703;BME280;60933;46.398;-63.798;2023-05-13T02:28:07;101087.72;;;13.98;54.63
66703;BME280;60933;46.398;-63.798;2023-05-13T02:30:33;101074.28;;;13.87;56.61
66703;BME280;60933;46.398;-63.798;2023-05-13T02:33:00;101082.81;;;13.89;55.55
66703;BME280;60933;46.398;-63.798;2023-05-13T02:35:26;101069.16;;;13.84;55.67
66703;BME280;60933;46.398;-63.798;2023-05-13T02:37:55;101069.31;;;13.79;55.94
66703;BME280;60933;46.398;-63.798;2023-05-13T02:40:22;101069.31;;;13.79;55.80
66703;BME280;60933;46.398;-63.798;2023-05-13T02:42:49;101061.63;;;13.76;55.65
66703;BME280;60933;46.398;-63.798;2023-05-13T02:45:15;101053.91;;;13.74;55.70
66703;BME280;60933;46.398;-63.798;2023-05-13T02:47:41;101051.38;;;13.73;55.72
66703;BME280;60933;46.398;-63.798;2023-05-13T02:50:08;101045.44;;;13.69;56.60
66703;BME280;60933;46.398;-63.798;2023-05-13T02:52:35;101043.81;;;13.65;56.86
66703;BME280;60933;46.398;-63.798;2023-05-13T02:55:06;101044.91;;;13.59;57.98
66703;BME280;60933;46.398;-63.798;2023-05-13T02:57:33;101040.75;;;13.54;57.32
66703;BME280;60933;46.398;-63.798;2023-05-13T02:59:59;101026.22;;;13.48;57.94
66703;BME280;60933;46.398;-63.798;2023-05-13T03:02:25;101023.94;;;13.37;59.02
66703;BME280;60933;46.398;-63.798;2023-05-13T03:04:52;101015.47;;;13.32;58.45
66703;BME280;60933;46.398;-63.798;2023-05-13T03:07:20;101010.47;;;13.26;59.03
66703;BME280;60933;46.398;-63.798;2023-05-13T03:09:46;101015.84;;;13.20;59.45
66703;BME280;60933;46.398;-63.798;2023-05-13T03:12:12;101011.72;;;13.14;60.69
66703;BME280;60933;46.398;-63.798;2023-05-13T03:14:38;101014.50;;;13.08;60.67
66703;BME280;60933;46.398;-63.798;2023-05-13T03:17:05;101015.50;;;13.04;60.95
66703;BME280;60933;46.398;-63.798;2023-05-13T03:19:33;101005.25;;;12.99;59.75
66703;BME280;60933;46.398;-63.798;2023-05-13T03:21:59;100995.78;;;12.98;60.46
66703;BME280;60933;46.398;-63.798;2023-05-13T03:24:26;100992.38;;;12.96;60.62
66703;BME280;60933;46.398;-63.798;2023-05-13T03:26:52;100986.47;;;12.92;60.67
66703;BME280;60933;46.398;-63.798;2023-05-13T03:29:18;100983.13;;;12.89;60.80
66703;BME280;60933;46.398;-63.798;2023-05-13T03:31:44;100976.34;;;12.85;61.14
66703;BME280;60933;46.398;-63.798;2023-05-13T03:34:10;100972.13;;;12.80;61.41
66703;BME280;60933;46.398;-63.798;2023-05-13T03:36:36;100975.72;;;12.76;61.91
66703;BME280;60933;46.398;-63.798;2023-05-13T03:39:03;100968.91;;;12.74;60.75
66703;BME280;60933;46.398;-63.798;2023-05-13T03:41:29;100969.84;;;12.71;60.85
66703;BME280;60933;46.398;-63.798;2023-05-13T03:43:55;100971.63;;;12.69;61.14
66703;BME280;60933;46.398;-63.798;2023-05-13T03:46:21;100965.63;;;12.67;61.88
66703;BME280;60933;46.398;-63.798;2023-05-13T03:48:47;100962.44;;;12.59;61.74
66703;BME280;60933;46.398;-63.798;2023-05-13T03:51:14;100958.13;;;12.58;62.19
66703;BME280;60933;46.398;-63.798;2023-05-13T03:53:40;100959.03;;;12.57;62.12
66703;BME280;60933;46.398;-63.798;2023-05-13T03:56:06;100953.06;;;12.55;61.33
66703;BME280;60933;46.398;-63.798;2023-05-13T03:58:32;100938.50;;;12.50;62.27
66703;BME280;60933;46.398;-63.798;2023-05-13T04:00:58;100939.38;;;12.49;61.25
66703;BME280;60933;46.398;-63.798;2023-05-13T04:03:25;100940.31;;;12.48;62.22
66703;BME280;60933;46.398;-63.798;2023-05-13T04:05:51;100930.09;;;12.42;62.02
66703;BME280;60933;46.398;-63.798;2023-05-13T04:08:17;100937.03;;;12.42;62.14
66703;BME280;60933;46.398;-63.798;2023-05-13T04:10:43;100934.53;;;12.39;62.67
66703;BME280;60933;46.398;-63.798;2023-05-13T04:13:10;100923.41;;;12.35;62.83
66703;BME280;60933;46.398;-63.798;2023-05-13T04:15:36;100926.13;;;12.32;64.01
66703;BME280;60933;46.398;-63.798;2023-05-13T04:18:02;100921.91;;;12.28;62.11
66703;BME280;60933;46.398;-63.798;2023-05-13T04:20:28;100919.41;;;12.25;62.80
66703;BME280;60933;46.398;-63.798;2023-05-13T04:22:55;100925.56;;;12.21;63.30
66703;BME280;60933;46.398;-63.798;2023-05-13T04:25:21;100923.97;;;12.16;62.53
66703;BME280;60933;46.398;-63.798;2023-05-13T04:27:47;100924.09;;;12.12;62.56
66703;BME280;60933;46.398;-63.798;2023-05-13T04:30:13;100928.56;;;12.07;62.72
66703;BME280;60933;46.398;-63.798;2023-05-13T04:32:40;100916.72;;;11.98;63.68
66703;BME280;60933;46.398;-63.798;2023-05-13T04:35:07;100919.31;;;11.98;63.45
66703;BME280;60933;46.398;-63.798;2023-05-13T04:37:33;100919.38;;;11.93;61.67
66703;BME280;60933;46.398;-63.798;2023-05-13T04:39:59;100911.75;;;11.88;63.42
66703;BME280;60933;46.398;-63.798;2023-05-13T04:42:25;100918.00;;;11.81;64.42
66703;BME280;60933;46.398;-63.798;2023-05-13T04:44:51;100908.63;;;11.77;63.63
66703;BME280;60933;46.398;-63.798;2023-05-13T04:47:18;100895.06;;;11.69;64.06
66703;BME280;60933;46.398;-63.798;2023-05-13T04:49:44;100901.13;;;11.68;63.70
66703;BME280;60933;46.398;-63.798;2023-05-13T04:52:10;100882.31;;;11.63;63.68
66703;BME280;60933;46.398;-63.798;2023-05-13T04:54:39;100889.25;;;11.61;64.31
66703;BME280;60933;46.398;-63.798;2023-05-13T04:57:05;100891.06;;;11.57;64.41
66703;BME280;60933;46.398;-63.798;2023-05-13T04:59:32;100884.31;;;11.51;65.22
66703;BME280;60933;46.398;-63.798;2023-05-13T05:01:58;100876.66;;;11.48;64.13
66703;BME280;60933;46.398;-63.798;2023-05-13T05:04:24;100879.34;;;11.44;65.08
66703;BME280;60933;46.398;-63.798;2023-05-13T05:06:50;100881.19;;;11.38;64.54
66703;BME280;60933;46.398;-63.798;2023-05-13T05:09:16;100888.16;;;11.36;65.03
66703;BME280;60933;46.398;-63.798;2023-05-13T05:11:43;100881.34;;;11.34;64.60
66703;BME280;60933;46.398;-63.798;2023-05-13T05:14:09;100889.16;;;11.31;65.23
66703;BME280;60933;46.398;-63.798;2023-05-13T05:16:35;100891.91;;;11.24;65.94
66703;BME280;60933;46.398;-63.798;2023-05-13T05:19:01;100897.94;;;11.23;64.48
66703;BME280;60933;46.398;-63.798;2023-05-13T05:21:27;100902.34;;;11.20;63.93
66703;BME280;60933;46.398;-63.798;2023-05-13T05:23:53;100922.19;;;11.18;65.11
66703;BME280;60933;46.398;-63.798;2023-05-13T05:26:20;100930.09;;;11.12;62.75
66703;BME280;60933;46.398;-63.798;2023-05-13T05:28:46;100903.53;;;11.06;64.72
66703;BME280;60933;46.398;-63.798;2023-05-13T05:31:13;100923.44;;;11.01;64.48
66703;BME280;60933;46.398;-63.798;2023-05-13T05:33:39;100896.06;;;10.96;66.30
66703;BME280;60933;46.398;-63.798;2023-05-13T05:36:06;100928.09;;;10.87;67.01
66703;BME280;60933;46.398;-63.798;2023-05-13T05:38:32;100923.84;;;10.84;66.84
66703;BME280;60933;46.398;-63.798;2023-05-13T05:40:58;100906.81;;;10.77;66.94
66703;BME280;60933;46.398;-63.798;2023-05-13T05:43:24;100906.94;;;10.71;68.01
66703;BME280;60933;46.398;-63.798;2023-05-13T05:45:50;100898.44;;;10.66;67.66
66703;BME280;60933;46.398;-63.798;2023-05-13T05:48:16;100893.41;;;10.61;68.32
66703;BME280;60933;46.398;-63.798;2023-05-13T05:50:43;100887.47;;;10.57;69.03
66703;BME280;60933;46.398;-63.798;2023-05-13T05:53:09;100890.09;;;10.54;68.25
66703;BME280;60933;46.398;-63.798;2023-05-13T05:55:35;100867.81;;;10.50;69.08
66703;BME280;60933;46.398;-63.798;2023-05-13T05:58:04;100861.91;;;10.45;69.69
66703;BME280;60933;46.398;-63.798;2023-05-13T06:00:31;100869.66;;;10.45;67.40
66703;BME280;60933;46.398;-63.798;2023-05-13T06:02:58;100866.25;;;10.43;68.34
66703;BME280;60933;46.398;-63.798;2023-05-13T06:05:24;100865.41;;;10.42;68.21
66703;BME280;60933;46.398;-63.798;2023-05-13T06:07:50;100862.88;;;10.41;68.14
66703;BME280;60933;46.398;-63.798;2023-05-13T06:10:16;100865.47;;;10.39;69.00
66703;BME280;60933;46.398;-63.798;2023-05-13T06:12:42;100856.94;;;10.37;69.40
66703;BME280;60933;46.398;-63.798;2023-05-13T06:15:09;100837.28;;;10.28;69.63
66703;BME280;60933;46.398;-63.798;2023-05-13T06:17:36;100844.94;;;10.33;69.20
66703;BME280;60933;46.398;-63.798;2023-05-13T06:20:02;100842.41;;;10.32;69.84
66703;BME280;60933;46.398;-63.798;2023-05-13T06:22:28;100839.81;;;10.32;69.72
66703;BME280;60933;46.398;-63.798;2023-05-13T06:24:55;100838.13;;;10.30;69.70
66703;BME280;60933;46.398;-63.798;2023-05-13T06:27:21;100822.69;;;10.29;69.76
66703;BME280;60933;46.398;-63.798;2023-05-13T06:29:47;100823.53;;;10.29;69.99
66703;BME280;60933;46.398;-63.798;2023-05-13T06:32:13;100828.72;;;10.28;70.29
66703;BME280;60933;46.398;-63.798;2023-05-13T06:34:41;100817.56;;;10.26;70.05
66703;BME280;60933;46.398;-63.798;2023-05-13T06:37:11;100809.06;;;10.22;70.24
66703;BME280;60933;46.398;-63.798;2023-05-13T06:39:38;100806.44;;;10.25;70.11
66703;BME280;60933;46.398;-63.798;2023-05-13T06:42:05;100812.50;;;10.23;69.24
66703;BME280;60933;46.398;-63.798;2023-05-13T06:44:31;100802.19;;;10.23;69.83
66703;BME280;60933;46.398;-63.798;2023-05-13T06:46:57;100790.16;;;10.22;70.36
66703;BME280;60933;46.398;-63.798;2023-05-13T06:49:23;100793.63;;;10.21;69.73
66703;BME280;60933;46.398;-63.798;2023-05-13T06:51:50;100791.03;;;10.21;70.09
66703;BME280;60933;46.398;-63.798;2023-05-13T06:54:16;100787.59;;;10.20;69.76
66703;BME280;60933;46.398;-63.798;2023-05-13T06:56:42;100775.56;;;10.19;70.80
66703;BME280;60933;46.398;-63.798;2023-05-13T06:59:08;100770.41;;;10.19;70.59
66703;BME280;60933;46.398;-63.798;2023-05-13T07:01:35;100762.78;;;10.16;70.82
66703;BME280;60933;46.398;-63.798;2023-05-13T07:04:01;100780.75;;;10.19;71.13
66703;BME280;60933;46.398;-63.798;2023-05-13T07:06:27;100792.75;;;10.20;69.39
66703;BME280;60933;46.398;-63.798;2023-05-13T07:08:53;100815.19;;;10.17;70.09
66703;BME280;60933;46.398;-63.798;2023-05-13T07:11:19;100802.25;;;10.20;70.81
66703;BME280;60933;46.398;-63.798;2023-05-13T07:13:45;100815.19;;;10.18;69.79
66703;BME280;60933;46.398;-63.798;2023-05-13T07:16:12;100812.59;;;10.18;69.50
66703;BME280;60933;46.398;-63.798;2023-05-13T07:18:39;100804.03;;;10.16;69.72
66703;BME280;60933;46.398;-63.798;2023-05-13T07:21:05;100813.53;;;10.14;68.75
66703;BME280;60933;46.398;-63.798;2023-05-13T07:23:31;100805.81;;;10.14;69.53
66703;BME280;60933;46.398;-63.798;2023-05-13T07:25:57;100796.34;;;10.13;69.25
66703;BME280;60933;46.398;-63.798;2023-05-13T07:28:24;100797.25;;;10.12;69.65
66703;BME280;60933;46.398;-63.798;2023-05-13T07:30:50;100794.66;;;10.12;70.02
66703;BME280;60933;46.398;-63.798;2023-05-13T07:33:18;100792.94;;;10.12;70.64
66703;BME280;60933;46.398;-63.798;2023-05-13T07:35:44;100785.25;;;10.11;70.33
66703;BME280;60933;46.398;-63.798;2023-05-13T07:38:10;100764.63;;;10.11;71.95
66703;BME280;60933;46.398;-63.798;2023-05-13T07:40:37;100745.78;;;10.07;72.41
66703;BME280;60933;46.398;-63.798;2023-05-13T07:43:03;100779.31;;;10.06;71.50
66703;BME280;60933;46.398;-63.798;2023-05-13T07:45:29;100805.13;;;10.06;68.63
66703;BME280;60933;46.398;-63.798;2023-05-13T07:47:55;100782.81;;;10.03;71.40
66703;BME280;60933;46.398;-63.798;2023-05-13T07:50:21;100798.34;;;10.02;69.93
66703;BME280;60933;46.398;-63.798;2023-05-13T07:52:47;100776.06;;;9.99;71.67
66703;BME280;60933;46.398;-63.798;2023-05-13T07:55:17;100778.72;;;9.93;71.16
66703;BME280;60933;46.398;-63.798;2023-05-13T07:57:43;100777.91;;;9.92;70.86
66703;BME280;60933;46.398;-63.798;2023-05-13T08:00:09;100775.38;;;9.89;72.19
66703;BME280;60933;46.398;-63.798;2023-05-13T08:02:37;100789.22;;;9.85;71.04
66703;BME280;60933;46.398;-63.798;2023-05-13T08:05:04;100792.66;;;9.86;72.42
66703;BME280;60933;46.398;-63.798;2023-05-13T08:07:31;100778.09;;;9.83;73.11
66703;BME280;60933;46.398;-63.798;2023-05-13T08:09:57;100772.13;;;9.81;72.59
66703;BME280;60933;46.398;-63.798;2023-05-13T08:12:23;100774.78;;;9.78;72.26
66703;BME280;60933;46.398;-63.798;2023-05-13T08:14:49;100764.56;;;9.73;73.15
66703;BME280;60933;46.398;-63.798;2023-05-13T08:17:15;100761.13;;;9.73;72.96
66703;BME280;60933;46.398;-63.798;2023-05-13T08:19:44;100758.63;;;9.70;73.51
66703;BME280;60933;46.398;-63.798;2023-05-13T08:22:11;100762.09;;;9.67;72.53
66703;BME280;60933;46.398;-63.798;2023-05-13T08:24:37;100749.22;;;9.67;73.86
66703;BME280;60933;46.398;-63.798;2023-05-13T08:27:05;100738.94;;;9.65;74.47
66703;BME280;60933;46.398;-63.798;2023-05-13T08:29:31;100734.69;;;9.64;73.47
66703;BME280;60933;46.398;-63.798;2023-05-13T08:31:57;100734.69;;;9.63;74.22
66703;BME280;60933;46.398;-63.798;2023-05-13T08:34:23;100733.91;;;9.61;73.48
66703;BME280;60933;46.398;-63.798;2023-05-13T08:36:50;100732.16;;;9.61;72.90
66703;BME280;60933;46.398;-63.798;2023-05-13T08:39:16;100739.88;;;9.61;73.35
66703;BME280;60933;46.398;-63.798;2023-05-13T08:41:43;100738.19;;;9.60;73.43
66703;BME280;60933;46.398;-63.798;2023-05-13T08:44:11;100744.22;;;9.59;74.22
66703;BME280;60933;46.398;-63.798;2023-05-13T08:46:44;100733.06;;;9.59;75.12
66703;BME280;60933;46.398;-63.798;2023-05-13T08:49:15;100732.19;;;9.60;75.33
66703;BME280;60933;46.398;-63.798;2023-05-13T08:51:42;100706.66;;;9.49;75.69
66703;BME280;60933;46.398;-63.798;2023-05-13T08:54:09;100729.63;;;9.58;74.64
66703;BME280;60933;46.398;-63.798;2023-05-13T08:56:36;100751.16;;;9.57;73.85
66703;BME280;60933;46.398;-63.798;2023-05-13T08:59:02;100761.47;;;9.57;74.37
66703;BME280;60933;46.398;-63.798;2023-05-13T09:01:29;100767.41;;;9.59;75.07
66703;BME280;60933;46.398;-63.798;2023-05-13T09:04:01;100757.97;;;9.60;74.72
66703;BME280;60933;46.398;-63.798;2023-05-13T09:06:29;100767.44;;;9.58;73.10
66703;BME280;60933;46.398;-63.798;2023-05-13T09:08:55;100767.41;;;9.59;72.23
66703;BME280;60933;46.398;-63.798;2023-05-13T09:11:21;100756.31;;;9.56;72.21
66703;BME280;60933;46.398;-63.798;2023-05-13T09:14:01;100779.41;;;9.60;73.44
66703;BME280;60933;46.398;-63.798;2023-05-13T09:16:28;100776.00;;;9.58;73.99
66703;BME280;60933;46.398;-63.798;2023-05-13T09:18:56;100777.72;;;9.61;74.48
66703;BME280;60933;46.398;-63.798;2023-05-13T09:21:23;100775.13;;;9.59;73.53
66703;BME280;60933;46.398;-63.798;2023-05-13T09:23:58;100756.34;;;9.54;72.94
66703;BME280;60933;46.398;-63.798;2023-05-13T09:26:28;100774.25;;;9.60;69.14
66703;BME280;60933;46.398;-63.798;2023-05-13T09:31:47;100774.25;;;9.60;73.15
66703;BME280;60933;46.398;-63.798;2023-05-13T09:34:15;100781.06;;;9.63;71.14
66703;BME280;60933;46.398;-63.798;2023-05-13T09:36:58;100784.47;;;9.65;71.09
66703;BME280;60933;46.398;-63.798;2023-05-13T09:39:24;100780.16;;;9.67;69.96
66703;BME280;60933;46.398;-63.798;2023-05-13T09:41:51;100763.81;;;9.66;72.57
66703;BME280;60933;46.398;-63.798;2023-05-13T09:44:17;100773.28;;;9.66;70.58
66703;BME280;60933;46.398;-63.798;2023-05-13T09:46:44;100770.66;;;9.69;72.49
66703;BME280;60933;46.398;-63.798;2023-05-13T09:49:10;100779.09;;;9.76;72.92
66703;BME280;60933;46.398;-63.798;2023-05-13T09:51:36;100757.50;;;9.81;74.19
66703;BME280;60933;46.398;-63.798;2023-05-13T09:54:05;100741.94;;;9.86;74.53
66703;BME280;60933;46.398;-63.798;2023-05-13T09:56:34;100738.41;;;9.90;72.06
66703;BME280;60933;46.398;-63.798;2023-05-13T09:59:03;100729.72;;;9.94;72.41
66703;BME280;60933;46.398;-63.798;2023-05-13T10:01:29;100728.72;;;10.00;73.50
66703;BME280;60933;46.398;-63.798;2023-05-13T10:03:57;100731.19;;;10.05;72.93
66703;BME280;60933;46.398;-63.798;2023-05-13T10:06:29;100720.81;;;10.08;72.08
66703;BME280;60933;46.398;-63.798;2023-05-13T10:08:58;100724.28;;;10.07;71.34
66703;BME280;60933;46.398;-63.798;2023-05-13T10:11:26;100725.00;;;10.12;72.27
66703;BME280;60933;46.398;-63.798;2023-05-13T10:14:04;100737.03;;;10.13;72.63
66703;BME280;60933;46.398;-63.798;2023-05-13T10:16:33;100718.19;;;10.11;71.42
66703;BME280;60933;46.398;-63.798;2023-05-13T10:19:00;100725.88;;;10.12;72.61
66703;BME280;60933;46.398;-63.798;2023-05-13T10:21:26;100733.53;;;10.16;74.10
66703;BME280;60933;46.398;-63.798;2023-05-13T10:23:52;100724.13;;;10.14;73.04
66703;BME280;60933;46.398;-63.798;2023-05-13T10:26:19;100730.94;;;10.16;73.55
66703;BME280;60933;46.398;-63.798;2023-05-13T10:28:47;100718.97;;;10.13;72.77
66703;BME280;60933;46.398;-63.798;2023-05-13T10:31:14;100730.06;;;10.17;72.62
66703;BME280;60933;46.398;-63.798;2023-05-13T10:33:42;100736.88;;;10.19;73.42
66703;BME280;60933;46.398;-63.798;2023-05-13T10:42:34;100751.13;;;10.36;72.90
66703;BME280;60933;46.398;-63.798;2023-05-13T10:45:03;100750.94;;;10.45;71.83
66703;BME280;60933;46.398;-63.798;2023-05-13T10:47:33;100742.91;;;10.57;73.10
66703;BME280;60933;46.398;-63.798;2023-05-13T10:49:59;100740.09;;;10.67;74.17
66703;BME280;60933;46.398;-63.798;2023-05-13T10:53:05;100734.81;;;10.71;71.73
66703;BME280;60933;46.398;-63.798;2023-05-13T10:55:39;100737.34;;;10.73;72.07
66703;BME280;60933;46.398;-63.798;2023-05-13T10:58:12;100755.50;;;10.70;71.71
66703;BME280;60933;46.398;-63.798;2023-05-13T11:00:41;100772.75;;;10.68;69.86
66703;BME280;60933;46.398;-63.798;2023-05-13T11:03:14;100778.69;;;10.71;71.67
66703;BME280;60933;46.398;-63.798;2023-05-13T11:05:43;100779.41;;;10.78;71.01
66703;BME280;60933;46.398;-63.798;2023-05-13T11:08:10;100770.66;;;10.84;73.01
66703;BME280;60933;46.398;-63.798;2023-05-13T11:10:36;100795.56;;;10.85;70.76
66703;BME280;60933;46.398;-63.798;2023-05-13T11:13:06;100783.59;;;10.82;70.03
66703;BME280;60933;46.398;-63.798;2023-05-13T11:15:43;100794.81;;;10.81;70.50
66703;BME280;60933;46.398;-63.798;2023-05-13T11:18:11;100811.31;;;10.75;72.76
66703;BME280;60933;46.398;-63.798;2023-05-13T11:20:37;100790.00;;;10.66;74.25
66703;BME280;60933;46.398;-63.798;2023-05-13T11:23:04;100780.72;;;10.58;68.98
66703;BME280;60933;46.398;-63.798;2023-05-13T11:25:30;100789.50;;;10.53;71.02
66703;BME280;60933;46.398;-63.798;2023-05-13T11:27:57;100783.66;;;10.43;72.31
66703;BME280;60933;46.398;-63.798;2023-05-13T11:30:25;100776.19;;;10.30;75.35
66703;BME280;60933;46.398;-63.798;2023-05-13T11:32:56;100779.03;;;10.20;76.04
66703;BME280;60933;46.398;-63.798;2023-05-13T11:35:30;100779.19;;;10.12;72.08
66703;BME280;60933;46.398;-63.798;2023-05-13T11:37:59;100793.72;;;10.16;73.74
66703;BME280;60933;46.398;-63.798;2023-05-13T11:40:32;100785.91;;;10.19;75.99
66703;BME280;60933;46.398;-63.798;2023-05-13T11:42:59;100791.06;;;10.19;76.96
66703;BME280;60933;46.398;-63.798;2023-05-13T11:45:26;100783.38;;;10.18;77.56
66703;BME280;60933;46.398;-63.798;2023-05-13T11:47:53;100789.91;;;10.33;76.99
66703;BME280;60933;46.398;-63.798;2023-05-13T11:50:27;100795.75;;;10.42;76.52
66703;BME280;60933;46.398;-63.798;2023-05-13T11:52:58;100798.94;;;10.52;76.42
66703;BME280;60933;46.398;-63.798;2023-05-13T11:55:32;100789.25;;;10.62;76.11
66703;BME280;60933;46.398;-63.798;2023-05-13T11:58:02;100789.13;;;10.67;76.81
66703;BME280;60933;46.398;-63.798;2023-05-13T12:00:32;100795.06;;;10.72;76.47
66703;BME280;60933;46.398;-63.798;2023-05-13T12:03:01;100806.94;;;10.79;76.80
66703;BME280;60933;46.398;-63.798;2023-05-13T12:05:27;100808.63;;;10.80;76.33
66703;BME280;60933;46.398;-63.798;2023-05-13T12:07:57;100799.13;;;10.81;75.16
66703;BME280;60933;46.398;-63.798;2023-05-13T12:10:25;100806.81;;;10.84;75.30
66703;BME280;60933;46.398;-63.798;2023-05-13T12:12:51;100810.06;;;10.90;74.82
66703;BME280;60933;46.398;-63.798;2023-05-13T12:15:18;100797.94;;;10.94;75.12
66703;BME280;60933;46.398;-63.798;2023-05-13T12:17:46;100789.22;;;10.98;75.77
66703;BME280;60933;46.398;-63.798;2023-05-13T12:25:46;100785.72;;;11.32;75.11
66703;BME280;60933;46.398;-63.798;2023-05-13T12:28:23;100777.25;;;11.59;74.99
66703;BME280;60933;46.398;-63.798;2023-05-13T12:30:55;100773.44;;;11.72;74.95
66703;BME280;60933;46.398;-63.798;2023-05-13T12:33:41;100770.34;;;11.89;74.51
66703;BME280;60933;46.398;-63.798;2023-05-13T12:36:27;100776.97;;;11.99;73.55
66703;BME280;60933;46.398;-63.798;2023-05-13T12:39:04;100781.09;;;12.05;73.95
66703;BME280;60933;46.398;-63.798;2023-05-13T12:41:32;100758.72;;;12.04;73.55
66703;BME280;60933;46.398;-63.798;2023-05-13T12:44:14;100767.00;;;12.15;73.56
66703;BME280;60933;46.398;-63.798;2023-05-13T12:46:53;100756.41;;;12.23;73.23
66703;BME280;60933;46.398;-63.798;2023-05-13T12:49:20;100752.44;;;12.40;72.23
66703;BME280;60933;46.398;-63.798;2023-05-13T12:51:47;100764.94;;;12.54;72.46
66703;BME280;60933;46.398;-63.798;2023-05-13T12:54:13;100752.44;;;12.66;73.21